Time;durP1;ratioP1;P1;durP2;ratioP2;P2;SDS_P1;SDS_P2;PMS_P1;PMS_P2;Temp;Humidity;BMP_temperature;BMP_pressure;BME280_temperature;BME280_humidity;BME280_pressure;Samples;Min_cycle;Max_cycle;Signal;HPM_P1;HPM_P2
2023/03/02 00:01:38;;;;;;;;;;;;;;;-1.23;69.56;99619.47;5047810;28;19929;-83
2023/03/02 00:04:05;;;;;;;;;;;;;;;-1.36;69.00;99614.66;5049367;28;19939;-81
2023/03/02 00:06:31;;;;;;;;;;;;;;;-1.10;68.54;99617.25;5052546;28;19920;-83
2023/03/02 00:08:59;;;;;;;;;;;;;;;-1.32;67.79;99610.75;5049047;28;19939;-82
2023/03/02 00:11:24;;;;;;;;;;;;;;;-0.69;70.05;99611.22;5051616;28;19916;-82
2023/03/02 00:13:50;;;;;;;;;;;;;;;-0.86;67.89;99614.78;5051033;28;19962;-82
2023/03/02 00:16:15;;;;;;;;;;;;;;;-1.28;68.96;99613.88;5059877;28;19921;-82
2023/03/02 00:18:40;;;;;;;;;;;;;;;-0.83;69.26;99607.41;5040239;28;19929;-81
2023/03/02 00:21:09;;;;;;;;;;;;;;;-0.74;69.10;99603.00;5055454;28;19925;-83
2023/03/02 00:23:34;;;;;;;;;;;;;;;-0.12;69.53;99596.47;5052401;28;19933;-82
2023/03/02 00:25:59;;;;;;;;;;;;;;;0.06;68.29;99594.53;5055915;28;20323;-83
2023/03/02 00:28:25;;;;;;;;;;;;;;;0.29;67.93;99600.75;5059734;28;19920;-83
2023/03/02 00:30:50;;;;;;;;;;;;;;;0.35;67.40;99596.66;5052156;28;19921;-82
2023/03/02 00:33:15;;;;;;;;;;;;;;;0.23;67.18;99600.59;5060357;28;19963;-82
2023/03/02 00:35:40;;;;;;;;;;;;;;;0.37;66.54;99594.69;5052437;28;19928;-82
2023/03/02 00:38:06;;;;;;;;;;;;;;;0.25;66.53;99596.00;5057851;28;19917;-83
2023/03/02 00:40:31;;;;;;;;;;;;;;;0.10;65.78;99597.63;5067992;28;19933;-82
2023/03/02 00:42:57;;;;;;;;;;;;;;;-0.38;65.43;99596.59;5065130;28;19924;-82
2023/03/02 00:45:22;;;;;;;;;;;;;;;-0.79;66.59;99602.69;5050017;28;19920;-82
2023/03/02 00:47:47;;;;;;;;;;;;;;;-0.21;68.61;99584.31;5046951;28;20058;-81
2023/03/02 00:50:12;;;;;;;;;;;;;;;-0.68;66.33;99596.34;5065268;28;19929;-82
2023/03/02 00:52:38;;;;;;;;;;;;;;;-0.24;68.38;99585.47;5048534;28;19978;-83
2023/03/02 00:55:03;;;;;;;;;;;;;;;-0.08;67.50;99585.50;5063863;28;19952;-82
2023/03/02 00:57:28;;;;;;;;;;;;;;;-0.28;67.52;99583.31;5050159;28;19925;-81
2023/03/02 00:59:54;;;;;;;;;;;;;;;-0.27;67.60;99591.06;5029974;28;19924;-82
2023/03/02 01:02:20;;;;;;;;;;;;;;;-0.69;65.73;99579.78;5048438;28;19964;-82
2023/03/02 01:04:47;;;;;;;;;;;;;;;-0.51;67.45;99591.00;5043925;28;19920;-83
2023/03/02 01:07:13;;;;;;;;;;;;;;;-0.73;67.15;99588.13;5054211;28;19917;-83
2023/03/02 01:09:40;;;;;;;;;;;;;;;-0.63;66.49;99588.84;5067225;28;19921;-83
2023/03/02 01:12:08;;;;;;;;;;;;;;;-0.40;67.34;99589.88;5053206;28;20356;-83
2023/03/02 01:14:34;;;;;;;;;;;;;;;0.13;67.49;99592.06;5062862;28;19932;-80
2023/03/02 01:16:59;;;;;;;;;;;;;;;0.24;66.70;99589.13;5051370;28;19929;-83
2023/03/02 01:19:24;;;;;;;;;;;;;;;0.25;66.83;99581.06;5051100;28;19924;-83
2023/03/02 01:21:50;;;;;;;;;;;;;;;0.20;66.46;99582.56;5067196;28;19920;-83
2023/03/02 01:24:16;;;;;;;;;;;;;;;-0.69;67.69;99581.56;5047110;28;19920;-82
2023/03/02 01:26:41;;;;;;;;;;;;;;;-0.17;67.96;99573.34;5071472;28;19928;-80
2023/03/02 01:29:06;;;;;;;;;;;;;;;0.07;67.32;99577.78;5061160;28;20316;-83
2023/03/02 01:31:32;;;;;;;;;;;;;;;0.15;66.98;99579.59;5049267;28;20408;-82
2023/03/02 01:33:57;;;;;;;;;;;;;;;0.09;67.08;99575.03;5049538;28;19925;-82
2023/03/02 01:36:22;;;;;;;;;;;;;;;0.09;66.95;99570.56;5030691;28;20395;-80
2023/03/02 01:38:48;;;;;;;;;;;;;;;0.09;66.93;99569.78;5066821;28;19979;-82
2023/03/02 01:41:13;;;;;;;;;;;;;;;0.16;66.97;99561.06;5044573;28;19933;-82
2023/03/02 01:43:38;;;;;;;;;;;;;;;0.09;67.19;99557.44;5046578;28;19920;-83
2023/03/02 01:46:11;;;;;;;;;;;;;;;0.10;67.07;99555.66;5044845;28;19929;-82
2023/03/02 01:48:41;;;;;;;;;;;;;;;0.06;67.00;99549.91;5048200;28;19924;-82
2023/03/02 01:51:07;;;;;;;;;;;;;;;0.04;66.62;99548.44;5060477;28;19917;-83
2023/03/02 01:53:33;;;;;;;;;;;;;;;0.06;67.02;99549.09;5064665;28;19928;-83
2023/03/02 01:55:59;;;;;;;;;;;;;;;0.02;67.34;99547.78;5045245;28;19920;-83
2023/03/02 01:58:25;;;;;;;;;;;;;;;-0.06;66.49;99541.56;5050302;28;20361;-83
2023/03/02 02:00:51;;;;;;;;;;;;;;;-0.01;67.15;99541.88;5043024;28;19924;-82
2023/03/02 02:03:19;;;;;;;;;;;;;;;-0.01;67.12;99536.63;5054535;28;20177;-81
2023/03/02 02:05:47;;;;;;;;;;;;;;;-0.06;67.13;99540.72;5053858;28;19917;-82
2023/03/02 02:08:12;;;;;;;;;;;;;;;-0.04;67.46;99534.34;5049150;28;20018;-82
2023/03/02 02:10:38;;;;;;;;;;;;;;;-0.01;67.15;99530.56;5053136;28;20023;-81
2023/03/02 02:13:05;;;;;;;;;;;;;;;-0.06;67.56;99531.06;5065321;28;20372;-81
2023/03/02 02:15:30;;;;;;;;;;;;;;;-0.05;67.54;99531.88;5067099;28;20006;-83
2023/03/02 02:17:55;;;;;;;;;;;;;;;-0.06;67.17;99520.56;5034348;28;19921;-81
2023/03/02 02:20:20;;;;;;;;;;;;;;;-0.10;67.33;99531.53;5049896;28;20350;-82
2023/03/02 02:22:49;;;;;;;;;;;;;;;-0.10;66.77;99521.06;5051720;28;20011;-83
2023/03/02 02:25:24;;;;;;;;;;;;;;;-0.12;66.92;99526.47;5057540;28;19946;-81
2023/03/02 02:27:50;;;;;;;;;;;;;;;-0.05;67.01;99521.38;5071756;28;19929;-82
2023/03/02 02:30:15;;;;;;;;;;;;;;;-0.06;67.28;99523.19;5058710;28;20433;-82
2023/03/02 02:32:42;;;;;;;;;;;;;;;-0.07;67.52;99520.72;5067820;28;19921;-82
2023/03/02 02:35:17;;;;;;;;;;;;;;;-0.06;66.55;99520.56;5049817;28;19996;-82
2023/03/02 02:37:50;;;;;;;;;;;;;;;-0.12;67.51;99510.72;5047090;28;19924;-82
2023/03/02 02:40:19;;;;;;;;;;;;;;;-0.14;67.44;99517.94;5039876;28;19947;-81
2023/03/02 02:42:47;;;;;;;;;;;;;;;-0.11;67.63;99516.81;5055626;28;19917;-81
2023/03/02 02:45:17;;;;;;;;;;;;;;;-0.11;67.19;99517.59;5057067;28;19917;-83
2023/03/02 02:47:43;;;;;;;;;;;;;;;-0.14;66.78;99511.88;5050371;28;19929;-82
2023/03/02 02:50:15;;;;;;;;;;;;;;;-0.15;66.81;99516.28;5047405;28;19931;-82
2023/03/02 02:52:41;;;;;;;;;;;;;;;-0.09;67.30;99517.47;5043548;28;19928;-82
2023/03/02 02:55:12;;;;;;;;;;;;;;;-0.11;66.64;99522.84;5043109;28;19928;-82
2023/03/02 02:57:38;;;;;;;;;;;;;;;-0.06;67.16;99519.72;5046650;28;19967;-81
2023/03/02 03:00:05;;;;;;;;;;;;;;;-0.12;66.46;99525.63;5044844;28;20353;-82
2023/03/02 03:02:32;;;;;;;;;;;;;;;-0.26;66.97;99528.91;5057313;28;19921;-82
2023/03/02 03:05:03;;;;;;;;;;;;;;;-0.26;67.57;99529.72;5053692;28;19925;-82
2023/03/02 03:07:30;;;;;;;;;;;;;;;-0.40;67.64;99522.53;5029183;28;19936;-82
2023/03/02 03:10:07;;;;;;;;;;;;;;;-0.32;67.46;99524.31;5046034;28;20402;-82
2023/03/02 03:12:33;;;;;;;;;;;;;;;-0.40;67.56;99535.63;5048073;28;20039;-82
2023/03/02 03:15:00;;;;;;;;;;;;;;;-0.39;67.39;99532.00;5029805;28;19931;-82
2023/03/02 03:17:25;;;;;;;;;;;;;;;-0.44;67.54;99533.50;5022966;28;19927;-83
2023/03/02 03:19:50;;;;;;;;;;;;;;;-0.47;67.54;99524.13;5050968;28;20618;-82
2023/03/02 03:22:15;;;;;;;;;;;;;;;-0.44;67.80;99523.84;5046044;28;19967;-81
2023/03/02 03:24:42;;;;;;;;;;;;;;;-0.50;67.83;99523.66;5032208;28;19940;-82
2023/03/02 03:27:08;;;;;;;;;;;;;;;-0.55;68.49;99521.50;5048985;28;19967;-81
2023/03/02 03:29:34;;;;;;;;;;;;;;;-0.53;68.27;99524.78;5050657;28;19917;-81
2023/03/02 03:32:00;;;;;;;;;;;;;;;-0.71;68.49;99518.84;5065755;28;19920;-83
2023/03/02 03:34:26;;;;;;;;;;;;;;;-0.63;67.96;99524.09;5053422;28;19924;-82
2023/03/02 03:36:51;;;;;;;;;;;;;;;-0.71;68.80;99521.47;5047756;28;19938;-83
2023/03/02 03:39:16;;;;;;;;;;;;;;;-0.63;67.80;99524.09;5043037;28;19917;-82
2023/03/02 03:41:42;;;;;;;;;;;;;;;-0.92;68.97;99526.34;5054906;28;19930;-83
2023/03/02 03:44:08;;;;;;;;;;;;;;;-0.90;69.06;99519.13;5042697;28;20376;-82
2023/03/02 03:46:33;;;;;;;;;;;;;;;-0.63;68.60;99520.69;5061563;28;19917;-83
2023/03/02 03:48:59;;;;;;;;;;;;;;;-2.21;70.13;99527.34;5047533;28;19924;-81
2023/03/02 03:51:24;;;;;;;;;;;;;;;-2.26;72.04;99530.41;5044069;28;19928;-80
2023/03/02 03:53:59;;;;;;;;;;;;;;;-1.87;71.92;99531.72;5061581;28;19971;-83
2023/03/02 03:56:28;;;;;;;;;;;;;;;-1.78;69.99;99541.25;5052383;28;19916;-81
2023/03/02 03:59:05;;;;;;;;;;;;;;;-1.88;72.93;99521.41;5051986;28;19932;-82
2023/03/02 04:01:33;;;;;;;;;;;;;;;-2.10;72.38;99521.91;5050111;28;20497;-83
2023/03/02 04:03:59;;;;;;;;;;;;;;;-1.78;71.83;99525.56;5055960;28;19968;-82
2023/03/02 04:06:24;;;;;;;;;;;;;;;-1.12;70.96;99517.09;5046645;28;19975;-81
2023/03/02 04:08:49;;;;;;;;;;;;;;;-0.88;69.75;99517.16;5051393;28;20273;-81
2023/03/02 04:11:14;;;;;;;;;;;;;;;-1.14;69.23;99509.41;5049369;28;20066;-81
2023/03/02 04:13:39;;;;;;;;;;;;;;;-0.99;69.23;99515.66;5052143;28;19928;-82
2023/03/02 04:16:05;;;;;;;;;;;;;;;-1.24;70.15;99513.09;5065143;28;19921;-82
2023/03/02 04:18:30;;;;;;;;;;;;;;;-0.90;69.15;99516.50;5051126;28;19936;-83
2023/03/02 04:20:55;;;;;;;;;;;;;;;-0.74;68.60;99508.66;5054475;28;19932;-83
2023/03/02 04:23:21;;;;;;;;;;;;;;;-0.95;68.42;99518.78;5053308;28;20368;-83
2023/03/02 04:25:46;;;;;;;;;;;;;;;-0.97;69.85;99513.72;5046737;28;19916;-83
2023/03/02 04:28:11;;;;;;;;;;;;;;;-1.04;69.85;99523.16;5059438;28;20452;-83
2023/03/02 04:30:37;;;;;;;;;;;;;;;-0.95;69.01;99521.41;5056615;28;19940;-82
2023/03/02 04:33:02;;;;;;;;;;;;;;;-1.10;68.87;99521.19;5044933;28;19927;-83
2023/03/02 04:35:27;;;;;;;;;;;;;;;-1.15;69.74;99512.16;5066342;28;20323;-81
2023/03/02 04:37:53;;;;;;;;;;;;;;;-1.42;69.41;99520.22;5046649;28;20400;-81
2023/03/02 04:40:18;;;;;;;;;;;;;;;-0.93;69.64;99515.03;5048178;28;19959;-82
2023/03/02 04:42:43;;;;;;;;;;;;;;;-0.81;68.44;99512.94;5048041;28;19928;-81
2023/03/02 04:45:09;;;;;;;;;;;;;;;-1.57;68.52;99518.16;5046789;28;19931;-82
2023/03/02 04:47:34;;;;;;;;;;;;;;;-1.19;69.80;99514.28;5061457;28;19971;-82
2023/03/02 04:49:59;;;;;;;;;;;;;;;-0.97;68.94;99513.72;5048394;28;19921;-82
2023/03/02 04:52:24;;;;;;;;;;;;;;;-1.43;69.59;99518.56;5049254;28;19928;-83
2023/03/02 04:54:50;;;;;;;;;;;;;;;-1.75;70.50;99520.00;5069165;28;19924;-83
2023/03/02 04:57:15;;;;;;;;;;;;;;;-1.12;69.73;99517.09;5050927;28;19917;-82
2023/03/02 04:59:40;;;;;;;;;;;;;;;-1.24;69.12;99506.06;5036451;28;19929;-83
2023/03/02 05:02:06;;;;;;;;;;;;;;;-1.11;69.46;99508.22;5051619;28;20003;-81
2023/03/02 05:04:31;;;;;;;;;;;;;;;-0.94;68.23;99507.34;5064291;28;19932;-83
2023/03/02 05:06:57;;;;;;;;;;;;;;;-0.86;67.62;99504.72;5048767;28;19929;-83
2023/03/02 05:09:26;;;;;;;;;;;;;;;-0.91;67.85;99504.38;5045921;28;19916;-83
2023/03/02 05:11:52;;;;;;;;;;;;;;;-0.94;67.75;99516.00;5047420;28;19974;-83
2023/03/02 05:14:17;;;;;;;;;;;;;;;-0.98;68.42;99517.28;5068461;28;19936;-83
2023/03/02 05:16:42;;;;;;;;;;;;;;;-0.92;68.08;99510.63;5049833;28;19921;-83
2023/03/02 05:19:08;;;;;;;;;;;;;;;-0.94;68.59;99518.59;5045252;28;19982;-82
2023/03/02 05:21:34;;;;;;;;;;;;;;;-1.01;67.74;99514.19;5043086;28;19932;-82
2023/03/02 05:23:59;;;;;;;;;;;;;;;-1.25;69.33;99520.16;5047648;28;20317;-82
2023/03/02 05:26:24;;;;;;;;;;;;;;;-0.99;67.96;99512.22;5051329;28;19929;-82
2023/03/02 05:28:50;;;;;;;;;;;;;;;-0.99;67.67;99510.44;5068506;28;19962;-83
2023/03/02 05:31:18;;;;;;;;;;;;;;;-0.93;67.75;99529.91;5054739;28;19921;-82
2023/03/02 05:33:43;;;;;;;;;;;;;;;-1.01;67.89;99524.66;5063032;28;20008;-83
2023/03/02 05:36:08;;;;;;;;;;;;;;;-0.96;67.97;99525.81;5064897;28;20047;-83
2023/03/02 05:38:34;;;;;;;;;;;;;;;-0.95;68.10;99527.47;5047586;28;20289;-82
2023/03/02 05:40:59;;;;;;;;;;;;;;;-1.09;68.58;99522.81;5058895;28;19933;-82
2023/03/02 05:43:24;;;;;;;;;;;;;;;-0.99;68.15;99528.75;5047397;28;19920;-81
2023/03/02 05:45:49;;;;;;;;;;;;;;;-1.03;67.85;99524.81;5043309;28;19924;-82
2023/03/02 05:48:15;;;;;;;;;;;;;;;-1.00;67.85;99524.50;5039011;28;19928;-83
2023/03/02 05:50:40;;;;;;;;;;;;;;;-1.08;67.80;99528.88;5057144;28;19916;-83
2023/03/02 05:53:06;;;;;;;;;;;;;;;-1.01;67.66;99522.88;5042996;28;19979;-83
2023/03/02 05:55:35;;;;;;;;;;;;;;;-1.31;68.12;99527.81;5027923;28;19928;-83
2023/03/02 05:58:01;;;;;;;;;;;;;;;-1.08;67.78;99519.22;5043065;28;19929;-82
2023/03/02 06:00:26;;;;;;;;;;;;;;;-1.19;68.72;99523.91;5052236;28;19944;-82
2023/03/02 06:02:51;;;;;;;;;;;;;;;-1.15;67.79;99527.84;5042745;28;19975;-82
2023/03/02 06:05:18;;;;;;;;;;;;;;;-1.20;68.60;99527.53;5047326;28;19921;-82
2023/03/02 06:07:44;;;;;;;;;;;;;;;-1.37;67.96;99529.22;5053034;28;19923;-83
2023/03/02 06:10:10;;;;;;;;;;;;;;;-1.38;69.02;99529.41;5049847;28;20364;-83
2023/03/02 06:12:35;;;;;;;;;;;;;;;-1.99;69.46;99532.13;5060972;28;19925;-83
2023/03/02 06:15:01;;;;;;;;;;;;;;;-1.95;71.12;99533.44;5051562;28;19922;-81
2023/03/02 06:17:26;;;;;;;;;;;;;;;-1.37;68.81;99521.38;5044518;28;20311;-82
2023/03/02 06:19:51;;;;;;;;;;;;;;;-1.43;69.86;99531.66;5047095;28;19931;-83
2023/03/02 06:22:17;;;;;;;;;;;;;;;-1.36;68.89;99528.28;5049599;28;19921;-82
2023/03/02 06:24:42;;;;;;;;;;;;;;;-1.26;68.15;99528.13;5042489;28;19916;-82
2023/03/02 06:27:07;;;;;;;;;;;;;;;-1.29;68.60;99523.22;5039946;28;19920;-82
2023/03/02 06:29:32;;;;;;;;;;;;;;;-1.20;68.22;99528.34;5033489;28;19920;-83
2023/03/02 06:31:58;;;;;;;;;;;;;;;-1.33;68.62;99537.63;5046785;28;19929;-83
2023/03/02 06:34:23;;;;;;;;;;;;;;;-2.43;69.89;99541.72;5041337;28;19920;-82
2023/03/02 06:36:48;;;;;;;;;;;;;;;-2.58;71.85;99537.97;5056039;28;21017;-82
2023/03/02 06:39:16;;;;;;;;;;;;;;;-2.99;72.89;99536.69;5056611;28;19920;-82
2023/03/02 06:41:42;;;;;;;;;;;;;;;-2.55;73.85;99542.88;5051576;28;19924;-83
2023/03/02 06:44:08;;;;;;;;;;;;;;;-2.67;72.64;99539.69;5055821;28;19920;-82
2023/03/02 06:46:33;;;;;;;;;;;;;;;-2.86;73.91;99547.59;5043181;28;20115;-83
2023/03/02 06:48:58;;;;;;;;;;;;;;;-3.06;73.58;99552.09;5042711;28;20518;-83
2023/03/02 06:51:24;;;;;;;;;;;;;;;-2.60;73.58;99545.13;5046048;28;19929;-82
2023/03/02 06:53:49;;;;;;;;;;;;;;;-2.19;72.99;99555.00;5042600;28;19925;-80
2023/03/02 06:56:15;;;;;;;;;;;;;;;-2.09;72.33;99545.28;5049611;28;19939;-81
2023/03/02 06:58:40;;;;;;;;;;;;;;;-2.15;72.93;99555.50;5045901;28;19971;-80
2023/03/02 07:01:06;;;;;;;;;;;;;;;-2.44;72.07;99547.88;5044763;28;19932;-80
2023/03/02 07:03:32;;;;;;;;;;;;;;;-2.62;73.21;99544.47;5027910;28;20351;-80
2023/03/02 07:05:57;;;;;;;;;;;;;;;-2.24;72.87;99549.38;5045927;28;20007;-82
2023/03/02 07:08:22;;;;;;;;;;;;;;;-2.38;73.10;99549.94;5049075;28;19967;-82
2023/03/02 07:10:48;;;;;;;;;;;;;;;-2.61;72.82;99549.53;5039928;28;19925;-82
2023/03/02 07:13:13;;;;;;;;;;;;;;;-2.63;73.04;99548.84;5040206;28;19929;-83
2023/03/02 07:15:38;;;;;;;;;;;;;;;-2.61;73.66;99548.69;5040124;28;20342;-82
2023/03/02 07:18:04;;;;;;;;;;;;;;;-2.28;73.67;99543.66;5047139;28;19978;-82
2023/03/02 07:20:29;;;;;;;;;;;;;;;-2.52;73.79;99543.41;5048823;28;20015;-82
2023/03/02 07:22:55;;;;;;;;;;;;;;;-2.45;73.75;99547.09;5052767;28;19913;-83
2023/03/02 07:25:20;;;;;;;;;;;;;;;-2.39;72.60;99538.66;5058657;28;19916;-84
2023/03/02 07:27:45;;;;;;;;;;;;;;;-2.28;73.15;99540.22;5058282;28;19921;-82
2023/03/02 07:30:11;;;;;;;;;;;;;;;-2.38;73.03;99539.47;5056284;28;19916;-82
2023/03/02 07:32:37;;;;;;;;;;;;;;;-2.26;73.66;99540.88;5051898;28;19924;-83
2023/03/02 07:35:02;;;;;;;;;;;;;;;-1.99;73.29;99545.19;5073303;28;19931;-82
2023/03/02 07:37:28;;;;;;;;;;;;;;;-2.19;73.22;99543.72;5059946;28;20352;-81
2023/03/02 07:39:54;;;;;;;;;;;;;;;-1.75;72.77;99543.56;5056733;28;20284;-83
2023/03/02 07:42:19;;;;;;;;;;;;;;;-1.80;73.00;99545.00;5057661;28;19938;-82
2023/03/02 07:44:44;;;;;;;;;;;;;;;-1.81;73.22;99545.97;5053232;28;20368;-82
2023/03/02 07:47:09;;;;;;;;;;;;;;;-1.81;73.23;99540.72;5055130;28;19920;-82
2023/03/02 07:49:35;;;;;;;;;;;;;;;-2.01;74.09;99540.09;5063265;28;19947;-84
2023/03/02 07:52:01;;;;;;;;;;;;;;;-1.56;73.95;99547.78;5057783;28;19917;-83
2023/03/02 07:54:29;;;;;;;;;;;;;;;-1.79;73.69;99536.19;5057973;28;20179;-83
2023/03/02 07:56:54;;;;;;;;;;;;;;;-1.68;73.23;99544.59;5056689;28;19927;-83
2023/03/02 07:59:19;;;;;;;;;;;;;;;-1.38;73.24;99539.88;5067490;28;19917;-84
2023/03/02 08:01:45;;;;;;;;;;;;;;;-1.24;72.96;99547.13;5064142;28;19940;-83
2023/03/02 08:04:10;;;;;;;;;;;;;;;-1.18;73.59;99541.28;5046571;28;19928;-82
2023/03/02 08:06:35;;;;;;;;;;;;;;;-1.15;72.67;99535.72;5042714;28;20406;-83
2023/03/02 08:09:02;;;;;;;;;;;;;;;-1.26;71.79;99538.59;5063515;28;19940;-82
2023/03/02 08:11:27;;;;;;;;;;;;;;;-1.07;72.19;99533.16;5066170;28;20373;-82
2023/03/02 08:13:52;;;;;;;;;;;;;;;-0.76;71.02;99528.97;5050205;28;19927;-83
2023/03/02 08:16:17;;;;;;;;;;;;;;;-0.85;70.31;99535.16;5048138;28;20340;-83
2023/03/02 08:18:43;;;;;;;;;;;;;;;-0.70;70.59;99531.00;5048043;28;19921;-83
2023/03/02 08:21:12;;;;;;;;;;;;;;;-0.36;70.31;99528.25;5056612;28;20358;-82
2023/03/02 08:23:37;;;;;;;;;;;;;;;-0.52;69.85;99530.84;5065943;28;19921;-83
2023/03/02 08:26:03;;;;;;;;;;;;;;;-1.00;69.86;99527.09;5064469;28;20015;-83
2023/03/02 08:28:28;;;;;;;;;;;;;;;-1.06;71.17;99521.69;5056879;28;20000;-82
2023/03/02 08:30:57;;;;;;;;;;;;;;;-1.06;70.95;99533.00;5055664;28;19921;-83
2023/03/02 08:33:23;;;;;;;;;;;;;;;-1.09;70.27;99537.72;5067600;28;19917;-83
2023/03/02 08:35:58;;;;;;;;;;;;;;;-1.15;70.37;99533.09;5077188;28;19947;-83
2023/03/02 08:38:24;;;;;;;;;;;;;;;-0.94;71.04;99533.53;5071205;28;20019;-83
2023/03/02 08:40:50;;;;;;;;;;;;;;;-0.67;71.29;99528.03;5042929;28;20019;-84
2023/03/02 08:43:15;;;;;;;;;;;;;;;-0.66;71.03;99524.44;5038018;28;19925;-84
2023/03/02 08:45:40;;;;;;;;;;;;;;;-0.77;70.61;99520.31;5051802;28;19920;-81
2023/03/02 08:48:06;;;;;;;;;;;;;;;-0.19;70.63;99519.41;5055629;28;20024;-82
2023/03/02 08:50:31;;;;;;;;;;;;;;;-0.01;70.34;99523.53;5036262;28;19987;-82
2023/03/02 08:52:56;;;;;;;;;;;;;;;0.05;70.22;99519.41;5072201;28;19923;-83
2023/03/02 08:55:21;;;;;;;;;;;;;;;0.10;70.52;99524.97;5053263;28;19929;-83
2023/03/02 08:57:47;;;;;;;;;;;;;;;-0.05;69.09;99519.59;5073393;28;20211;-84
2023/03/02 09:00:15;;;;;;;;;;;;;;;0.09;69.83;99522.53;5041073;28;19989;-82
2023/03/02 09:02:40;;;;;;;;;;;;;;;-0.07;69.05;99521.53;5056381;28;20403;-82
2023/03/02 09:05:05;;;;;;;;;;;;;;;-0.16;70.21;99517.28;5056858;28;19921;-83
2023/03/02 09:07:31;;;;;;;;;;;;;;;0.01;70.02;99510.22;5059525;28;19925;-82
2023/03/02 09:09:56;;;;;;;;;;;;;;;-0.21;69.92;99513.50;5058907;28;19920;-83
2023/03/02 09:12:21;;;;;;;;;;;;;;;-0.25;69.34;99514.81;5057678;28;20359;-83
2023/03/02 09:14:46;;;;;;;;;;;;;;;-0.32;69.48;99513.81;5037132;28;19929;-81
2023/03/02 09:17:14;;;;;;;;;;;;;;;-0.25;69.98;99513.03;5055550;28;19982;-82
2023/03/02 09:19:40;;;;;;;;;;;;;;;0.00;70.23;99508.59;5073988;28;19943;-83
2023/03/02 09:22:07;;;;;;;;;;;;;;;0.12;70.31;99515.13;5052101;28;19917;-82
2023/03/02 09:24:32;;;;;;;;;;;;;;;0.09;70.29;99514.66;5055952;28;20289;-82
2023/03/02 09:26:58;;;;;;;;;;;;;;;0.15;70.55;99516.63;5056211;28;19919;-81
2023/03/02 09:29:23;;;;;;;;;;;;;;;0.26;69.60;99508.41;5047199;28;19966;-82
2023/03/02 09:31:48;;;;;;;;;;;;;;;0.44;69.97;99509.84;5064897;28;20015;-82
2023/03/02 09:34:13;;;;;;;;;;;;;;;0.49;69.63;99511.94;5057347;28;19917;-82
2023/03/02 09:36:39;;;;;;;;;;;;;;;0.49;68.98;99510.16;5045242;28;20417;-81
2023/03/02 09:39:08;;;;;;;;;;;;;;;0.52;68.26;99499.31;5041737;28;20026;-82
2023/03/02 09:41:33;;;;;;;;;;;;;;;0.54;68.30;99505.22;5050838;28;20328;-82
2023/03/02 09:44:11;;;;;;;;;;;;;;;0.60;67.50;99506.34;5074983;28;19917;-81
2023/03/02 09:46:39;;;;;;;;;;;;;;;0.59;67.08;99505.53;5064387;28;19996;-81
2023/03/02 09:49:07;;;;;;;;;;;;;;;0.72;67.63;99512.91;5052938;28;19956;-81
2023/03/02 09:51:44;;;;;;;;;;;;;;;0.79;67.83;99507.78;5049575;28;19917;-81
2023/03/02 09:54:09;;;;;;;;;;;;;;;0.97;68.14;99501.28;5048056;28;19917;-82
2023/03/02 09:56:41;;;;;;;;;;;;;;;1.13;67.50;99503.84;5056416;28;20404;-83
2023/03/02 09:59:18;;;;;;;;;;;;;;;1.14;67.31;99504.63;5049013;28;20698;-83
2023/03/02 10:01:52;;;;;;;;;;;;;;;1.21;67.39;99503.78;5052543;28;19933;-83
2023/03/02 10:04:21;;;;;;;;;;;;;;;1.36;67.17;99502.06;5051639;28;19965;-82
2023/03/02 10:06:48;;;;;;;;;;;;;;;1.51;65.81;99504.75;5065985;28;19924;-83
2023/03/02 10:09:13;;;;;;;;;;;;;;;1.48;67.17;99502.50;5056590;28;19939;-83
2023/03/02 10:11:48;;;;;;;;;;;;;;;1.57;67.13;99511.16;5056538;28;19985;-84
2023/03/02 10:14:24;;;;;;;;;;;;;;;1.63;67.61;99506.00;5066009;28;19953;-83
2023/03/02 10:17:03;;;;;;;;;;;;;;;1.94;66.56;99503.31;5052601;28;19920;-83
2023/03/02 10:19:44;;;;;;;;;;;;;;;2.25;63.58;99504.81;5051000;28;19917;-83
2023/03/02 10:22:09;;;;;;;;;;;;;;;2.09;64.33;99506.78;5073397;28;19921;-84
2023/03/02 10:24:37;;;;;;;;;;;;;;;2.13;65.98;99505.44;5073124;28;19923;-83
2023/03/02 10:27:14;;;;;;;;;;;;;;;2.14;64.62;99496.56;5046398;28;19928;-84
2023/03/02 10:29:39;;;;;;;;;;;;;;;2.32;63.19;99496.19;5051487;28;19925;-84
2023/03/02 10:32:11;;;;;;;;;;;;;;;2.34;65.13;99495.00;5064208;28;19931;-84
2023/03/02 10:34:36;;;;;;;;;;;;;;;2.37;64.14;99496.47;5060941;28;19927;-84
2023/03/02 10:37:02;;;;;;;;;;;;;;;2.41;64.66;99487.22;5056474;28;19921;-84
2023/03/02 10:39:27;;;;;;;;;;;;;;;2.44;65.92;99489.50;5037963;28;19988;-84
2023/03/02 10:41:58;;;;;;;;;;;;;;;2.63;63.88;99484.50;5061174;28;19924;-84
2023/03/02 10:44:23;;;;;;;;;;;;;;;2.82;63.57;99483.94;5052778;28;19916;-83
2023/03/02 10:46:50;;;;;;;;;;;;;;;2.80;63.84;99475.41;5060755;28;19923;-84
2023/03/02 10:49:27;;;;;;;;;;;;;;;2.68;65.96;99481.31;5077296;28;19963;-84
2023/03/02 10:51:57;;;;;;;;;;;;;;;2.63;66.48;99484.50;5063068;28;19995;-84
2023/03/02 10:54:24;;;;;;;;;;;;;;;2.59;66.07;99482.41;5055137;28;20022;-83
2023/03/02 10:56:52;;;;;;;;;;;;;;;2.55;66.00;99481.16;5051344;28;20331;-84
2023/03/02 10:59:35;;;;;;;;;;;;;;;2.52;67.18;99486.75;5055281;28;19916;-83
2023/03/02 11:02:24;;;;;;;;;;;;;;;2.64;65.91;99478.25;5062625;28;19921;-83
2023/03/02 11:04:57;;;;;;;;;;;;;;;2.70;66.07;99480.16;5052511;28;20398;-84
2023/03/02 11:07:23;;;;;;;;;;;;;;;2.77;66.09;99480.22;5049549;28;20280;-84
2023/03/02 11:09:55;;;;;;;;;;;;;;;2.77;65.88;99475.78;5067587;28;19923;-80
2023/03/02 11:12:20;;;;;;;;;;;;;;;2.67;65.93;99464.69;5051670;28;19928;-84
2023/03/02 11:14:45;;;;;;;;;;;;;;;2.68;67.35;99461.06;5036165;28;20312;-84
2023/03/02 11:17:23;;;;;;;;;;;;;;;2.62;67.02;99456.50;5067943;28;19925;-84
2023/03/02 11:19:49;;;;;;;;;;;;;;;2.90;66.21;99451.41;5058795;28;19921;-83
2023/03/02 11:22:22;;;;;;;;;;;;;;;3.06;65.94;99453.00;5051335;28;20029;-84
2023/03/02 11:24:51;;;;;;;;;;;;;;;2.93;66.50;99459.75;5049618;28;20264;-84
2023/03/02 11:27:21;;;;;;;;;;;;;;;3.08;65.77;99451.78;5054239;28;19936;-83
2023/03/02 11:29:51;;;;;;;;;;;;;;;3.01;66.22;99450.94;5049889;28;19924;-83
2023/03/02 11:32:21;;;;;;;;;;;;;;;2.91;67.43;99445.13;5064680;28;19923;-83
2023/03/02 11:34:49;;;;;;;;;;;;;;;3.18;64.64;99438.31;5057442;28;19916;-83
2023/03/02 11:37:19;;;;;;;;;;;;;;;3.26;65.80;99432.94;5048589;28;19917;-82
2023/03/02 11:39:48;;;;;;;;;;;;;;;3.25;66.64;99441.84;5046682;28;19916;-84
2023/03/02 11:42:23;;;;;;;;;;;;;;;3.31;65.41;99435.81;5048959;28;20334;-83
2023/03/02 11:44:49;;;;;;;;;;;;;;;3.28;65.88;99436.19;5063059;28;19970;-83
2023/03/02 11:47:14;;;;;;;;;;;;;;;3.33;65.33;99432.00;5047948;28;19932;-83
2023/03/02 11:49:42;;;;;;;;;;;;;;;3.31;66.92;99435.81;5055874;28;20449;-83
2023/03/02 11:52:37;;;;;;;;;;;;;;;3.35;66.71;99426.53;5077541;28;20406;-83
2023/03/02 11:55:15;;;;;;;;;;;;;;;3.51;65.32;99423.66;5049790;28;19921;-84
2023/03/02 11:57:47;;;;;;;;;;;;;;;3.44;65.41;99420.94;5053243;28;19918;-83
2023/03/02 12:00:27;;;;;;;;;;;;;;;3.55;64.47;99420.44;5064007;28;19932;-83
2023/03/02 12:03:00;;;;;;;;;;;;;;;3.55;65.81;99420.44;5069746;28;19971;-83
2023/03/02 12:05:27;;;;;;;;;;;;;;;3.61;67.19;99411.75;5074859;28;20099;-84
2023/03/02 12:07:59;;;;;;;;;;;;;;;3.65;65.72;99401.63;5058333;28;19966;-83
2023/03/02 12:10:36;;;;;;;;;;;;;;;3.78;66.83;99401.72;5055527;28;19959;-83
2023/03/02 12:13:06;;;;;;;;;;;;;;;3.90;65.00;99400.22;5056676;28;20269;-83
2023/03/02 12:15:36;;;;;;;;;;;;;;;3.81;64.60;99396.09;5053464;28;19916;-84
2023/03/02 12:18:13;;;;;;;;;;;;;;;3.85;65.03;99399.16;5054981;28;19921;-84
2023/03/02 12:20:40;;;;;;;;;;;;;;;3.92;65.40;99400.03;5060142;28;19924;-83
2023/03/02 12:23:06;;;;;;;;;;;;;;;4.04;65.10;99396.66;5055370;28;19920;-85
2023/03/02 12:25:38;;;;;;;;;;;;;;;3.94;65.23;99393.53;5059989;28;19950;-81
2023/03/02 12:28:03;;;;;;;;;;;;;;;4.07;64.06;99390.16;5051160;28;20288;-82
2023/03/02 12:30:30;;;;;;;;;;;;;;;4.15;64.06;99390.03;5059850;28;19921;-82
2023/03/02 12:32:58;;;;;;;;;;;;;;;4.28;64.66;99382.97;5043892;28;19920;-84
2023/03/02 12:35:25;;;;;;;;;;;;;;;4.26;64.30;99381.56;5056147;28;19920;-84
2023/03/02 12:37:52;;;;;;;;;;;;;;;4.37;67.00;99381.00;5053443;28;19921;-81
2023/03/02 12:40:28;;;;;;;;;;;;;;;4.47;65.05;99376.19;5069426;28;20027;-84
2023/03/02 12:43:12;;;;;;;;;;;;;;;4.52;62.89;99379.06;5061579;28;19917;-82
2023/03/02 12:45:56;;;;;;;;;;;;;;;4.63;62.63;99367.09;5073050;28;20018;-81
2023/03/02 12:48:38;;;;;;;;;;;;;;;4.57;63.37;99364.22;5062730;28;20311;-85
2023/03/02 12:51:04;;;;;;;;;;;;;;;4.85;63.22;99365.97;5061107;28;20293;-84